createdAt,value
2023-01-20T00:01:52.797Z,2.58
2023-01-20T00:04:19.459Z,2.39
2023-01-20T00:06:46.063Z,2.61
2023-01-20T00:09:14.456Z,2.56
2023-01-20T00:11:40.723Z,2.38
2023-01-20T00:14:10.942Z,2.51
2023-01-20T00:16:37.275Z,2.62
2023-01-20T00:19:03.638Z,2.69
2023-01-20T00:21:29.993Z,2.69
2023-01-20T00:23:56.609Z,2.46
2023-01-20T00:26:24.000Z,2.59
2023-01-20T00:28:53.035Z,2.46
2023-01-20T00:31:25.769Z,2.41
2023-01-20T00:33:53.054Z,2.47
2023-01-20T00:36:19.989Z,2.32
2023-01-20T00:38:46.604Z,2.45
2023-01-20T00:41:13.274Z,2.24
2023-01-20T00:43:39.571Z,2.26
2023-01-20T00:46:06.339Z,2.27
2023-01-20T00:48:33.189Z,2.35
2023-01-20T00:51:00.018Z,2.15
2023-01-20T00:53:26.542Z,2.27
2023-01-20T00:55:52.809Z,2.35
2023-01-20T00:58:19.112Z,2.64
2023-01-20T01:00:49.638Z,2.60
2023-01-20T01:03:16.285Z,2.67
2023-01-20T01:05:42.789Z,2.80
2023-01-20T01:08:09.319Z,2.85
2023-01-20T01:10:35.808Z,2.73
2023-01-20T01:13:03.327Z,2.57
2023-01-20T01:15:29.679Z,2.58
2023-01-20T01:17:56.733Z,2.35
2023-01-20T01:20:23.147Z,2.34
2023-01-20T01:22:49.437Z,2.32
2023-01-20T01:25:15.850Z,2.42
2023-01-20T01:27:42.167Z,2.48
2023-01-20T01:30:08.797Z,2.64
2023-01-20T01:32:35.085Z,2.37
2023-01-20T01:35:01.448Z,2.18
2023-01-20T01:37:28.512Z,2.29
2023-01-20T01:39:54.784Z,2.43
2023-01-20T01:42:24.058Z,2.20
2023-01-20T01:45:09.186Z,2.29
2023-01-20T01:47:36.433Z,2.45
2023-01-20T01:50:03.225Z,2.42
2023-01-20T01:52:29.725Z,2.45
2023-01-20T01:54:56.212Z,2.44
2023-01-20T01:57:22.497Z,2.40
2023-01-20T01:59:48.969Z,2.36
2023-01-20T02:02:15.295Z,2.61
2023-01-20T02:04:43.458Z,2.55
2023-01-20T02:07:12.247Z,2.23
2023-01-20T02:09:38.591Z,2.26
2023-01-20T02:12:08.260Z,2.44
2023-01-20T02:14:35.932Z,2.54
2023-01-20T02:17:12.003Z,2.43
2023-01-20T02:19:57.402Z,2.36
2023-01-20T02:22:35.879Z,2.37
2023-01-20T02:25:02.152Z,2.42
2023-01-20T02:27:47.469Z,2.48
2023-01-20T02:30:25.160Z,2.27
2023-01-20T02:32:54.311Z,2.23
2023-01-20T02:35:24.367Z,2.14
2023-01-20T02:38:17.083Z,1.85
2023-01-20T02:40:49.480Z,1.67
2023-01-20T02:43:34.740Z,2.21
2023-01-20T02:46:01.082Z,1.77
2023-01-20T02:48:36.437Z,1.86
2023-01-20T02:51:07.529Z,1.90
2023-01-20T02:53:41.368Z,2.06
2023-01-20T02:56:08.718Z,1.92
2023-01-20T02:58:39.275Z,1.72
2023-01-20T03:01:08.778Z,1.64
2023-01-20T03:03:37.884Z,1.69
2023-01-20T03:06:07.665Z,1.53
2023-01-20T03:08:34.967Z,1.84
2023-01-20T03:11:05.878Z,1.66
2023-01-20T03:13:37.878Z,1.53
2023-01-20T03:16:12.339Z,1.67
2023-01-20T03:18:39.324Z,1.90
2023-01-20T03:21:07.440Z,1.94
2023-01-20T03:23:35.143Z,1.95
2023-01-20T03:26:04.631Z,1.74
2023-01-20T03:28:31.056Z,1.65
2023-01-20T03:30:58.192Z,1.81
2023-01-20T03:33:24.825Z,1.64
2023-01-20T03:35:51.832Z,1.48
2023-01-20T03:38:18.133Z,1.40
2023-01-20T03:40:48.617Z,1.42
2023-01-20T03:43:26.643Z,1.41
2023-01-20T03:45:57.250Z,1.51
2023-01-20T03:48:41.909Z,1.59
2023-01-20T03:51:12.603Z,1.62
2023-01-20T03:53:48.479Z,1.40
2023-01-20T03:56:18.627Z,1.39
2023-01-20T03:58:46.784Z,1.55
2023-01-20T04:01:17.814Z,1.51
2023-01-20T04:03:47.131Z,1.32
2023-01-20T04:06:14.783Z,1.43
2023-01-20T04:08:44.737Z,1.43
2023-01-20T04:11:11.173Z,1.34
2023-01-20T04:13:37.434Z,1.32
2023-01-20T04:16:08.960Z,1.34
2023-01-20T04:18:40.131Z,1.70
2023-01-20T04:21:06.643Z,1.40
2023-01-20T04:23:35.705Z,1.50
2023-01-20T04:26:02.076Z,1.56
2023-01-20T04:28:28.450Z,1.58
2023-01-20T04:30:54.861Z,1.30
2023-01-20T04:33:21.255Z,1.28
2023-01-20T04:35:47.557Z,1.31
2023-01-20T04:38:13.825Z,1.44
2023-01-20T04:40:40.146Z,1.58
2023-01-20T04:43:06.719Z,1.72
2023-01-20T04:45:33.040Z,1.68
2023-01-20T04:47:59.352Z,1.85
2023-01-20T04:50:25.619Z,1.84
2023-01-20T04:52:54.335Z,1.63
2023-01-20T04:55:20.683Z,1.54
2023-01-20T04:57:47.468Z,1.62
2023-01-20T05:00:19.778Z,1.40
2023-01-20T05:02:46.715Z,1.36
2023-01-20T05:05:13.428Z,1.60
2023-01-20T05:07:39.831Z,1.63
2023-01-20T05:10:06.467Z,1.57
2023-01-20T05:12:32.794Z,1.62
2023-01-20T05:14:59.055Z,1.52
2023-01-20T05:17:25.376Z,1.48
2023-01-20T05:19:51.672Z,1.40
2023-01-20T05:22:17.941Z,1.29
2023-01-20T05:24:44.266Z,1.32
2023-01-20T05:27:10.547Z,1.56
2023-01-20T05:29:36.840Z,1.36
2023-01-20T05:32:03.161Z,1.51
2023-01-20T05:34:29.477Z,1.50
2023-01-20T05:36:55.792Z,1.50
2023-01-20T05:39:22.164Z,1.47
2023-01-20T05:41:48.529Z,1.48
2023-01-20T05:44:15.124Z,1.33
2023-01-20T05:46:41.494Z,1.34
2023-01-20T05:49:07.795Z,1.33
2023-01-20T05:51:34.233Z,1.31
2023-01-20T05:54:00.572Z,1.56
2023-01-20T05:56:26.873Z,1.41
2023-01-20T05:58:56.331Z,1.57
2023-01-20T06:01:22.716Z,1.44
2023-01-20T06:03:49.052Z,1.41
2023-01-20T06:06:17.676Z,1.47
2023-01-20T06:08:44.878Z,1.57
2023-01-20T06:11:11.949Z,1.39
2023-01-20T06:13:39.565Z,1.40
2023-01-20T06:16:07.425Z,1.27
2023-01-20T06:18:34.220Z,1.40
2023-01-20T06:21:00.600Z,1.54
2023-01-20T06:23:27.288Z,1.34
2023-01-20T06:26:00.171Z,1.30
2023-01-20T06:28:26.483Z,1.55
2023-01-20T06:30:58.908Z,1.45
2023-01-20T06:33:25.192Z,1.58
2023-01-20T06:35:53.523Z,1.55
2023-01-20T06:38:19.867Z,1.61
2023-01-20T06:40:46.134Z,1.59
2023-01-20T06:43:12.416Z,1.63
2023-01-20T06:45:38.700Z,1.46
2023-01-20T06:48:05.073Z,1.61
2023-01-20T06:50:31.481Z,1.56
2023-01-20T06:52:57.761Z,1.24
2023-01-20T06:55:24.102Z,1.22
2023-01-20T06:57:50.394Z,1.28
2023-01-20T07:00:16.827Z,1.30
2023-01-20T07:02:43.149Z,1.32
2023-01-20T07:05:10.116Z,1.35
2023-01-20T07:07:36.447Z,1.40
2023-01-20T07:10:03.317Z,1.42
2023-01-20T07:12:29.635Z,1.33
2023-01-20T07:14:55.941Z,1.37
2023-01-20T07:17:22.218Z,1.40
2023-01-20T07:19:48.534Z,1.42
2023-01-20T07:22:14.807Z,1.47
2023-01-20T07:24:41.088Z,1.56
2023-01-20T07:27:07.375Z,1.45
2023-01-20T07:29:33.767Z,1.50
2023-01-20T07:32:00.113Z,1.35
2023-01-20T07:34:26.574Z,1.32
2023-01-20T07:36:55.606Z,1.37
2023-01-20T07:39:21.880Z,1.57
2023-01-20T07:41:51.110Z,1.73
2023-01-20T07:44:17.402Z,1.75
2023-01-20T07:46:43.707Z,1.75
2023-01-20T07:49:12.210Z,1.74
2023-01-20T07:51:39.745Z,1.80
2023-01-20T07:54:06.073Z,1.67
2023-01-20T07:56:32.515Z,1.60
2023-01-20T07:58:58.788Z,1.41
2023-01-20T08:01:26.663Z,1.32
2023-01-20T08:03:53.347Z,1.35
2023-01-20T08:06:20.551Z,1.43
2023-01-20T08:08:47.164Z,1.47
2023-01-20T08:11:14.296Z,1.40
2023-01-20T08:13:40.912Z,1.69
2023-01-20T08:16:08.367Z,1.88
2023-01-20T08:18:35.378Z,1.80
2023-01-20T08:21:06.327Z,1.75
2023-01-20T08:23:33.444Z,1.90
2023-01-20T08:26:01.975Z,1.85
2023-01-20T08:28:29.174Z,1.87
2023-01-20T08:30:56.033Z,1.92
2023-01-20T08:33:22.389Z,1.73
2023-01-20T08:35:48.705Z,1.83
2023-01-20T08:38:15.011Z,1.86
2023-01-20T08:40:41.968Z,1.84
2023-01-20T08:43:08.259Z,1.87
2023-01-20T08:45:34.544Z,1.90
2023-01-20T08:48:00.871Z,1.74
2023-01-20T08:50:27.135Z,1.87
2023-01-20T08:52:53.404Z,1.95
2023-01-20T08:55:19.765Z,2.00
2023-01-20T08:57:46.125Z,2.14
2023-01-20T09:00:13.757Z,2.04
2023-01-20T09:02:40.907Z,2.09
2023-01-20T09:05:08.638Z,2.09
2023-01-20T09:07:34.914Z,2.01
2023-01-20T09:10:01.239Z,1.88
2023-01-20T09:12:27.555Z,1.93
2023-01-20T09:14:56.321Z,2.07
2023-01-20T09:17:22.623Z,2.04
2023-01-20T09:19:48.926Z,2.05
2023-01-20T09:22:16.634Z,1.96
2023-01-20T09:24:43.025Z,2.03
2023-01-20T09:27:09.312Z,1.98
2023-01-20T09:29:36.657Z,1.86
2023-01-20T09:32:03.152Z,2.07
2023-01-20T09:34:30.747Z,2.06
2023-01-20T09:36:58.108Z,2.07
2023-01-20T09:39:43.173Z,2.19
2023-01-20T09:42:39.920Z,2.10
2023-01-20T09:45:24.598Z,2.16
2023-01-20T09:47:51.341Z,2.20
2023-01-20T09:50:47.112Z,2.27
2023-01-20T09:53:34.416Z,2.28
2023-01-20T09:56:08.790Z,2.30
2023-01-20T09:58:40.304Z,2.32
2023-01-20T10:01:12.474Z,2.32
2023-01-20T10:03:41.848Z,2.08
2023-01-20T10:06:14.234Z,2.14
2023-01-20T10:08:59.646Z,2.35
2023-01-20T10:11:34.773Z,2.38
2023-01-20T10:14:16.301Z,2.39
2023-01-20T10:16:50.476Z,2.42
2023-01-20T10:19:31.907Z,2.23
2023-01-20T10:22:04.787Z,2.31
2023-01-20T10:24:33.643Z,2.45
2023-01-20T10:27:03.842Z,2.22
2023-01-20T10:29:37.380Z,2.25
2023-01-20T10:32:23.946Z,2.07
2023-01-20T10:34:56.309Z,2.23
2023-01-20T10:37:23.565Z,2.13
2023-01-20T10:39:53.311Z,2.26
2023-01-20T10:42:20.072Z,2.27
2023-01-20T10:44:47.371Z,2.20
2023-01-20T10:47:36.805Z,2.38
2023-01-20T10:50:03.079Z,2.36
2023-01-20T10:52:29.383Z,2.36
2023-01-20T10:54:58.704Z,2.24
2023-01-20T10:57:25.154Z,2.29
2023-01-20T10:59:53.970Z,2.57
2023-01-20T11:02:29.376Z,2.12
2023-01-20T11:05:03.078Z,2.31
2023-01-20T11:07:32.366Z,2.36
2023-01-20T11:10:00.540Z,2.23
2023-01-20T11:12:30.089Z,2.31
2023-01-20T11:14:57.273Z,2.30
2023-01-20T11:17:23.578Z,2.40
2023-01-20T11:19:51.587Z,2.28
2023-01-20T11:22:29.650Z,2.40
2023-01-20T11:24:58.855Z,2.35
2023-01-20T11:27:31.502Z,2.43
2023-01-20T11:30:00.012Z,2.33
2023-01-20T11:32:31.447Z,2.57
2023-01-20T11:34:58.250Z,2.41
2023-01-20T11:37:42.425Z,2.65
2023-01-20T11:40:23.612Z,2.51
2023-01-20T11:42:50.838Z,2.33
2023-01-20T11:45:28.058Z,2.19
2023-01-20T11:48:06.513Z,2.51
2023-01-20T11:50:34.905Z,2.31
2023-01-20T11:53:19.611Z,2.31
2023-01-20T11:55:54.393Z,2.53
2023-01-20T11:58:22.334Z,2.55
2023-01-20T12:00:49.932Z,2.38
2023-01-20T12:03:34.379Z,2.50
2023-01-20T12:06:23.415Z,2.41
2023-01-20T12:08:56.249Z,2.39
2023-01-20T12:11:26.816Z,2.44
2023-01-20T12:14:19.174Z,2.45
2023-01-20T12:16:48.275Z,2.36
2023-01-20T12:19:18.050Z,2.31
2023-01-20T12:21:48.749Z,2.36
2023-01-20T12:24:21.642Z,2.39
2023-01-20T12:26:48.703Z,2.29
2023-01-20T12:29:14.970Z,2.37
2023-01-20T12:31:43.433Z,2.30
2023-01-20T12:34:14.585Z,2.39
2023-01-20T12:36:51.617Z,2.36
2023-01-20T12:39:36.467Z,2.52
2023-01-20T12:42:14.956Z,2.68
2023-01-20T12:44:47.077Z,2.69
2023-01-20T12:47:19.747Z,2.74
2023-01-20T12:50:06.686Z,2.80
2023-01-20T12:52:42.002Z,2.78
2023-01-20T12:55:17.288Z,2.43
2023-01-20T12:57:43.553Z,2.54
2023-01-20T13:00:16.356Z,2.60
2023-01-20T13:02:52.266Z,2.57
2023-01-20T13:05:18.634Z,2.46
2023-01-20T13:07:49.923Z,2.34
2023-01-20T13:10:26.132Z,2.38
2023-01-20T13:12:52.387Z,2.16
2023-01-20T13:15:22.772Z,2.12
2023-01-20T13:18:06.816Z,2.04
2023-01-20T13:20:34.745Z,2.08
2023-01-20T13:23:04.167Z,2.15
2023-01-20T13:25:31.014Z,2.11
2023-01-20T13:27:57.468Z,2.36
2023-01-20T13:30:47.857Z,2.39
2023-01-20T13:33:15.749Z,2.30
2023-01-20T13:35:44.767Z,2.24
2023-01-20T13:38:18.773Z,2.18
2023-01-20T13:40:45.585Z,2.22
2023-01-20T13:43:11.863Z,2.22
2023-01-20T13:45:39.140Z,2.30
2023-01-20T13:48:08.377Z,2.34
2023-01-20T13:50:37.454Z,2.09
2023-01-20T13:53:09.929Z,2.38
2023-01-20T13:55:45.485Z,2.59
2023-01-20T13:58:14.924Z,2.49
2023-01-20T14:00:41.550Z,2.47
2023-01-20T14:03:14.185Z,2.53
2023-01-20T14:05:40.727Z,2.45
2023-01-20T14:08:13.149Z,2.40
2023-01-20T14:10:39.706Z,2.33
2023-01-20T14:13:17.957Z,2.26
2023-01-20T14:15:48.211Z,2.43
2023-01-20T14:18:16.639Z,2.20
2023-01-20T14:20:43.490Z,2.31
2023-01-20T14:23:27.259Z,2.21
2023-01-20T14:25:57.485Z,2.32
2023-01-20T14:28:23.766Z,2.39
2023-01-20T14:30:50.965Z,2.35
2023-01-20T14:33:17.524Z,2.11
2023-01-20T14:35:44.689Z,2.20
2023-01-20T14:38:17.821Z,2.15
2023-01-20T14:40:44.214Z,2.12
2023-01-20T14:43:18.175Z,1.97
2023-01-20T14:45:46.389Z,2.02
2023-01-20T14:48:24.752Z,1.83
2023-01-20T14:51:02.446Z,2.06
2023-01-20T14:53:28.711Z,1.96
2023-01-20T14:55:58.478Z,2.00
2023-01-20T14:58:24.974Z,2.01
2023-01-20T15:00:51.616Z,1.99
2023-01-20T15:03:23.862Z,1.95
2023-01-20T15:05:58.201Z,1.84
2023-01-20T15:08:26.242Z,2.06
2023-01-20T15:11:11.684Z,2.06
2023-01-20T15:13:39.231Z,1.98
2023-01-20T15:16:16.981Z,2.00
2023-01-20T15:18:43.337Z,1.91
2023-01-20T15:21:20.557Z,1.78
2023-01-20T15:23:52.360Z,1.78
2023-01-20T15:26:24.315Z,1.88
2023-01-20T15:28:50.640Z,1.95
2023-01-20T15:31:17.156Z,1.80
2023-01-20T15:33:43.911Z,1.83
2023-01-20T15:36:18.959Z,1.95
2023-01-20T15:38:45.420Z,2.09
2023-01-20T15:41:12.732Z,1.93
2023-01-20T15:43:39.655Z,1.93
2023-01-20T15:46:10.695Z,1.68
2023-01-20T15:48:37.027Z,1.78
2023-01-20T15:51:03.607Z,2.04
2023-01-20T15:53:30.213Z,2.13
2023-01-20T15:55:56.617Z,2.08
2023-01-20T15:58:25.741Z,1.94
2023-01-20T16:00:52.271Z,1.99
2023-01-20T16:03:19.179Z,1.88
2023-01-20T16:05:47.443Z,1.79
2023-01-20T16:08:14.834Z,1.78
2023-01-20T16:10:41.188Z,1.75
2023-01-20T16:13:08.530Z,1.92
2023-01-20T16:15:35.248Z,2.02
2023-01-20T16:18:01.695Z,2.04
2023-01-20T16:20:28.185Z,1.95
2023-01-20T16:22:54.610Z,1.95
2023-01-20T16:25:20.959Z,2.01
2023-01-20T16:27:47.379Z,1.96
2023-01-20T16:30:18.385Z,2.05
2023-01-20T16:32:46.348Z,1.93
2023-01-20T16:35:16.557Z,1.85
2023-01-20T16:37:44.355Z,1.64
2023-01-20T16:40:15.258Z,1.84
2023-01-20T16:42:41.856Z,1.79
2023-01-20T16:45:23.135Z,1.74
2023-01-20T16:47:49.619Z,1.71
2023-01-20T16:50:16.329Z,1.54
2023-01-20T16:52:42.726Z,1.58
2023-01-20T16:55:09.835Z,1.78
2023-01-20T16:57:37.481Z,1.90
2023-01-20T17:00:07.327Z,1.85
2023-01-20T17:02:38.922Z,1.86
2023-01-20T17:05:06.895Z,1.55
2023-01-20T17:07:33.197Z,1.74
2023-01-20T17:09:59.579Z,1.72
2023-01-20T17:12:25.899Z,1.53
2023-01-20T17:14:52.208Z,1.71
2023-01-20T17:17:18.514Z,1.72
2023-01-20T17:19:44.811Z,1.70
2023-01-20T17:22:11.170Z,1.73
2023-01-20T17:24:39.200Z,1.67
2023-01-20T17:27:05.595Z,1.73
2023-01-20T17:29:31.983Z,1.66
2023-01-20T17:31:58.327Z,1.71
2023-01-20T17:34:24.695Z,1.83
2023-01-20T17:36:51.024Z,1.76
2023-01-20T17:39:17.304Z,1.39
2023-01-20T17:41:43.581Z,1.44
2023-01-20T17:44:09.892Z,1.54
2023-01-20T17:46:36.216Z,1.28
2023-01-20T17:49:04.697Z,1.26
2023-01-20T17:51:31.118Z,1.19
2023-01-20T17:53:58.094Z,1.21
2023-01-20T17:56:24.701Z,1.03
2023-01-20T17:58:51.199Z,1.33
2023-01-20T18:01:19.169Z,1.43
2023-01-20T18:03:45.886Z,1.16
2023-01-20T18:06:13.446Z,1.02
2023-01-20T18:08:40.083Z,1.23
2023-01-20T18:11:10.868Z,1.34
2023-01-20T18:13:37.761Z,1.22
2023-01-20T18:16:05.131Z,1.23
2023-01-20T18:18:31.635Z,1.21
2023-01-20T18:21:06.665Z,1.40
2023-01-20T18:23:32.981Z,1.44
2023-01-20T18:25:59.353Z,1.57
2023-01-20T18:28:25.836Z,1.27
2023-01-20T18:30:52.459Z,1.21
2023-01-20T18:33:18.817Z,1.23
2023-01-20T18:35:45.099Z,1.51
2023-01-20T18:38:11.385Z,1.58
2023-01-20T18:40:37.739Z,1.44
2023-01-20T18:43:04.039Z,1.16
2023-01-20T18:45:30.334Z,1.08
2023-01-20T18:47:56.694Z,0.94
2023-01-20T18:50:22.965Z,1.30
2023-01-20T18:52:49.287Z,1.16
2023-01-20T18:55:15.592Z,1.05
2023-01-20T18:57:41.888Z,1.29
2023-01-20T19:00:08.512Z,1.44
2023-01-20T19:02:34.995Z,1.45
2023-01-20T19:05:01.361Z,1.45
2023-01-20T19:07:27.659Z,1.24
2023-01-20T19:09:53.952Z,1.51
2023-01-20T19:12:20.254Z,1.50
2023-01-20T19:14:46.623Z,1.39
2023-01-20T19:17:12.923Z,1.19
2023-01-20T19:19:39.289Z,1.13
2023-01-20T19:22:05.624Z,1.06
2023-01-20T19:24:32.156Z,1.17
2023-01-20T19:27:00.245Z,1.17
2023-01-20T19:29:29.232Z,1.31
2023-01-20T19:31:55.895Z,1.26
2023-01-20T19:34:22.251Z,1.19
2023-01-20T19:36:48.546Z,1.12
2023-01-20T19:39:15.446Z,1.15
2023-01-20T19:41:43.107Z,1.08
2023-01-20T19:44:10.693Z,1.03
2023-01-20T19:46:41.113Z,1.31
2023-01-20T19:49:07.542Z,1.09
2023-01-20T19:51:33.938Z,1.06
2023-01-20T19:54:01.110Z,1.30
2023-01-20T19:56:30.176Z,1.42
2023-01-20T19:58:56.523Z,1.48
2023-01-20T20:01:41.132Z,1.22
2023-01-20T20:04:09.891Z,1.22
2023-01-20T20:06:37.861Z,1.43
2023-01-20T20:09:09.542Z,1.10
2023-01-20T20:11:35.994Z,1.15
2023-01-20T20:14:03.444Z,1.15
2023-01-20T20:16:31.043Z,1.04
2023-01-20T20:18:57.714Z,1.42
2023-01-20T20:21:24.285Z,1.26
2023-01-20T20:23:51.498Z,1.12
2023-01-20T20:26:18.268Z,1.13
2023-01-20T20:28:44.712Z,1.12
2023-01-20T20:31:11.083Z,1.31
2023-01-20T20:33:37.785Z,1.38
2023-01-20T20:36:08.251Z,1.19
2023-01-20T20:38:36.571Z,1.15
2023-01-20T20:41:03.849Z,1.14
2023-01-20T20:43:30.275Z,1.10
2023-01-20T20:46:00.310Z,1.24
2023-01-20T20:48:26.645Z,1.12
2023-01-20T20:50:53.441Z,1.03
2023-01-20T20:53:20.627Z,1.04
2023-01-20T20:55:46.979Z,1.22
2023-01-20T20:58:13.290Z,1.25
2023-01-20T21:00:39.837Z,1.22
2023-01-20T21:03:10.953Z,1.30
2023-01-20T21:05:37.252Z,1.51
2023-01-20T21:08:05.937Z,1.34
2023-01-20T21:10:32.250Z,1.39
2023-01-20T21:12:58.539Z,1.51
2023-01-20T21:15:24.981Z,1.19
2023-01-20T21:17:51.242Z,1.28
2023-01-20T21:20:17.949Z,1.15
2023-01-20T21:22:44.482Z,1.22
2023-01-20T21:25:10.819Z,1.15
2023-01-20T21:27:38.044Z,1.22
2023-01-20T21:30:04.610Z,1.07
2023-01-20T21:32:30.941Z,0.98
2023-01-20T21:34:58.850Z,1.04
2023-01-20T21:37:25.150Z,0.93
2023-01-20T21:39:51.422Z,1.06
2023-01-20T21:42:17.715Z,1.03
2023-01-20T21:44:44.241Z,1.04
2023-01-20T21:47:11.421Z,0.94
2023-01-20T21:49:56.141Z,1.15
2023-01-20T21:52:41.547Z,1.30
2023-01-20T21:55:08.930Z,1.12
2023-01-20T21:57:35.249Z,0.86
2023-01-20T22:00:02.229Z,0.97
2023-01-20T22:02:29.169Z,0.97
2023-01-20T22:04:55.939Z,1.02
2023-01-20T22:07:22.798Z,0.99
2023-01-20T22:09:49.249Z,1.06
2023-01-20T22:12:15.789Z,1.10
2023-01-20T22:14:42.213Z,1.15
2023-01-20T22:17:09.388Z,0.93
2023-01-20T22:19:35.846Z,0.89
2023-01-20T22:22:02.437Z,0.77
2023-01-20T22:24:29.204Z,0.84
2023-01-20T22:26:55.492Z,0.82
2023-01-20T22:29:21.795Z,0.79
2023-01-20T22:31:50.595Z,0.87
2023-01-20T22:34:17.104Z,0.94
2023-01-20T22:36:43.412Z,0.85
2023-01-20T22:39:10.766Z,0.93
2023-01-20T22:41:37.090Z,0.92
2023-01-20T22:44:03.419Z,0.88
2023-01-20T22:46:29.794Z,0.83
2023-01-20T22:48:57.015Z,0.75
2023-01-20T22:51:24.849Z,0.78
2023-01-20T22:53:55.104Z,0.70
2023-01-20T22:56:23.058Z,0.66
2023-01-20T22:58:49.581Z,0.63
2023-01-20T23:01:17.122Z,0.65
2023-01-20T23:03:43.771Z,0.59
2023-01-20T23:06:10.370Z,0.62
2023-01-20T23:08:36.706Z,0.52
2023-01-20T23:11:07.374Z,0.51
2023-01-20T23:13:35.120Z,0.49
2023-01-20T23:16:04.519Z,0.47
2023-01-20T23:18:31.275Z,0.49
2023-01-20T23:20:57.756Z,0.51
2023-01-20T23:23:24.878Z,0.62
2023-01-20T23:25:51.362Z,0.71
2023-01-20T23:28:17.656Z,0.80
2023-01-20T23:30:44.013Z,0.64
2023-01-20T23:33:10.322Z,0.54
2023-01-20T23:35:39.647Z,0.50
2023-01-20T23:38:06.977Z,0.47
2023-01-20T23:40:33.486Z,0.46
2023-01-20T23:42:59.833Z,0.49
2023-01-20T23:45:26.124Z,0.43
2023-01-20T23:47:52.489Z,0.70
2023-01-20T23:50:18.838Z,0.56
2023-01-20T23:52:45.148Z,0.45
2023-01-20T23:55:11.477Z,0.54
2023-01-20T23:57:37.821Z,0.43
